Time;durP1;ratioP1;P1;durP2;ratioP2;P2;SDS_P1;SDS_P2;PMS_P1;PMS_P2;Temp;Humidity;BMP_temperature;BMP_pressure;BME280_temperature;BME280_humidity;BME280_pressure;Samples;Min_cycle;Max_cycle;Signal;HPM_P1;HPM_P2
2023/09/21 00:01:38;;;;;;;3.40;3.10;;;23.30;99.90;;;;;;4966471;28;20965;-58
2023/09/21 00:04:05;;;;;;;3.83;2.97;;;23.30;99.90;;;;;;4969046;28;20475;-56
2023/09/21 00:06:32;;;;;;;5.10;2.63;;;23.30;99.90;;;;;;4969498;28;20484;-53
2023/09/21 00:08:59;;;;;;;3.80;2.97;;;23.20;99.90;;;;;;4969185;28;21089;-56
2023/09/21 00:11:26;;;;;;;4.27;3.77;;;23.30;99.90;;;;;;4965187;28;20460;-57
2023/09/21 00:13:53;;;;;;;3.97;3.57;;;23.30;99.90;;;;;;4969900;28;20531;-56
2023/09/21 00:16:25;;;;;;;2.73;2.50;;;23.30;99.90;;;;;;4961963;28;20460;-60
2023/09/21 00:18:51;;;;;;;5.30;3.83;;;23.30;99.90;;;;;;4969882;28;20457;-55
2023/09/21 00:21:19;;;;;;;2.60;2.40;;;23.30;99.90;;;;;;4968282;28;20469;-54
2023/09/21 00:23:47;;;;;;;3.37;3.07;;;23.20;99.90;;;;;;4970945;28;20461;-56
2023/09/21 00:26:15;;;;;;;3.17;2.60;;;23.20;99.90;;;;;;4967251;28;20586;-58
2023/09/21 00:28:43;;;;;;;3.10;2.80;;;23.20;99.90;;;;;;4967558;28;20468;-56
2023/09/21 00:31:10;;;;;;;2.77;2.57;;;23.20;99.90;;;;;;4964793;28;20464;-56
2023/09/21 00:33:39;;;;;;;3.50;3.20;;;23.20;99.90;;;;;;4967444;28;20968;-53
2023/09/21 00:36:09;;;;;;;4.20;3.80;;;23.20;99.90;;;;;;4967262;28;20571;-59
2023/09/21 00:38:37;;;;;;;3.30;3.00;;;23.20;99.90;;;;;;4968197;28;20543;-56
2023/09/21 00:41:04;;;;;;;3.87;3.57;;;23.20;99.90;;;;;;4968295;28;20463;-54
2023/09/21 00:43:31;;;;;;;2.70;2.33;;;23.20;99.90;;;;;;4964395;28;20964;-55
2023/09/21 00:46:00;;;;;;;3.90;3.00;;;23.20;99.90;;;;;;4962844;28;20468;-53
2023/09/21 00:48:33;;;;;;;3.70;2.60;;;23.20;99.90;;;;;;4965047;28;20904;-54
2023/09/21 00:51:05;;;;;;;3.43;2.67;;;23.20;99.90;;;;;;4966089;28;20555;-56
2023/09/21 00:53:33;;;;;;;3.77;2.47;;;23.20;99.90;;;;;;4968302;28;20460;-55
2023/09/21 00:56:05;;;;;;;3.30;3.00;;;23.20;99.90;;;;;;4967769;28;20543;-55
2023/09/21 00:58:33;;;;;;;2.93;2.70;;;23.20;99.90;;;;;;4965511;28;20460;-57
2023/09/21 01:01:00;;;;;;;3.87;2.90;;;23.20;99.90;;;;;;4961677;28;20460;-55
2023/09/21 01:03:28;;;;;;;3.90;3.20;;;23.20;99.90;;;;;;5000009;22;20499;-54
2023/09/21 01:05:55;;;;;;;3.30;3.00;;;23.20;99.90;;;;;;4988711;28;20589;-59
2023/09/21 01:08:28;;;;;;;2.90;2.70;;;23.20;99.90;;;;;;4987250;28;20475;-55
2023/09/21 01:10:57;;;;;;;2.80;2.60;;;23.20;99.90;;;;;;4988661;28;20847;-58
2023/09/21 01:13:25;;;;;;;3.03;2.63;;;23.20;99.90;;;;;;4990926;28;20474;-61
2023/09/21 01:16:00;;;;;;;2.80;2.60;;;23.20;99.90;;;;;;4987768;28;20459;-54
2023/09/21 01:18:26;;;;;;;3.63;3.33;;;23.20;99.90;;;;;;4984506;28;20455;-58
2023/09/21 01:21:04;;;;;;;4.13;3.10;;;23.20;99.90;;;;;;4988639;28;20642;-57
2023/09/21 01:23:38;;;;;;;3.13;2.90;;;23.20;99.90;;;;;;4979301;28;20466;-63
2023/09/21 01:26:06;;;;;;;6.30;3.30;;;23.20;99.90;;;;;;4986787;28;20512;-63
2023/09/21 01:28:32;;;;;;;3.60;3.10;;;23.20;99.90;;;;;;4988621;28;20584;-63
2023/09/21 01:31:00;;;;;;;4.40;3.23;;;23.20;99.90;;;;;;4986128;28;20467;-70
2023/09/21 01:33:27;;;;;;;4.37;2.90;;;23.20;99.90;;;;;;4977046;28;20491;-58
2023/09/21 01:35:54;;;;;;;4.43;3.20;;;23.20;99.90;;;;;;4989042;28;20463;-57
2023/09/21 01:38:27;;;;;;;2.43;2.23;;;23.20;99.90;;;;;;4988157;28;20557;-60
2023/09/21 01:40:55;;;;;;;4.03;2.80;;;23.20;99.90;;;;;;4994799;28;20465;-54
2023/09/21 01:43:22;;;;;;;2.50;2.30;;;23.20;99.90;;;;;;4990727;28;20463;-54
2023/09/21 01:45:50;;;;;;;4.07;3.10;;;23.20;99.90;;;;;;4988318;28;20793;-55
2023/09/21 01:48:18;;;;;;;3.30;3.00;;;23.20;99.90;;;;;;4992439;28;20486;-55
2023/09/21 01:50:47;;;;;;;3.37;3.07;;;23.20;99.90;;;;;;4985572;28;21163;-67
2023/09/21 01:53:16;;;;;;;2.60;2.30;;;23.20;99.90;;;;;;4990004;28;20550;-56
2023/09/21 01:55:44;;;;;;;2.40;2.10;;;23.20;99.90;;;;;;4987960;28;20460;-55
2023/09/21 01:58:12;;;;;;;2.70;2.50;;;23.10;99.90;;;;;;4990975;28;20993;-62
2023/09/21 02:00:40;;;;;;;3.83;3.27;;;23.20;99.90;;;;;;4988429;28;20558;-60
2023/09/21 02:03:08;;;;;;;3.33;2.97;;;23.20;99.90;;;;;;4992074;28;20471;-64
2023/09/21 02:05:35;;;;;;;2.73;2.53;;;23.10;99.90;;;;;;4987775;28;20806;-54
2023/09/21 02:08:04;;;;;;;3.30;2.60;;;23.20;99.90;;;;;;4991474;28;20478;-60
2023/09/21 02:10:31;;;;;;;2.60;2.40;;;23.10;99.90;;;;;;4985986;28;20854;-53
2023/09/21 02:12:59;;;;;;;2.50;2.17;;;23.20;99.90;;;;;;4989845;28;20827;-53
2023/09/21 02:15:29;;;;;;;3.27;2.97;;;23.10;99.90;;;;;;4986702;28;20474;-65
2023/09/21 02:17:56;;;;;;;2.53;2.17;;;23.20;99.90;;;;;;4985192;28;20489;-64
2023/09/21 02:20:24;;;;;;;3.63;3.20;;;23.10;99.90;;;;;;4989893;28;20463;-70
2023/09/21 02:22:52;;;;;;;3.47;3.00;;;23.10;99.90;;;;;;4989734;28;20474;-57
2023/09/21 02:25:20;;;;;;;3.63;2.83;;;23.10;99.90;;;;;;4986424;28;20499;-49
2023/09/21 02:27:47;;;;;;;3.10;2.80;;;23.10;99.90;;;;;;4992075;28;20569;-60
2023/09/21 02:30:16;;;;;;;2.57;2.30;;;23.10;99.90;;;;;;4989581;28;20498;-61
2023/09/21 02:32:48;;;;;;;3.03;2.83;;;23.10;99.90;;;;;;4990639;28;21295;-56
2023/09/21 02:35:16;;;;;;;2.77;2.57;;;23.10;99.90;;;;;;4989676;28;20665;-68
2023/09/21 02:37:44;;;;;;;4.20;2.30;;;23.10;99.90;;;;;;4988507;28;20464;-58
2023/09/21 02:40:15;;;;;;;3.60;3.27;;;23.10;99.90;;;;;;4991639;28;20545;-63
2023/09/21 02:42:43;;;;;;;3.20;2.90;;;23.10;99.90;;;;;;4987622;28;20932;-55
2023/09/21 02:45:11;;;;;;;2.70;2.50;;;23.10;99.90;;;;;;4980858;28;21902;-57
2023/09/21 02:47:38;;;;;;;2.80;2.40;;;23.10;99.90;;;;;;4982811;28;20483;-54
2023/09/21 02:50:14;;;;;;;2.70;2.50;;;23.10;99.90;;;;;;4989563;28;20491;-62
2023/09/21 02:52:46;;;;;;;3.10;2.80;;;23.10;99.90;;;;;;4988486;28;20459;-57
2023/09/21 02:55:13;;;;;;;3.00;2.70;;;23.10;99.90;;;;;;4987300;28;20994;-65
2023/09/21 02:57:40;;;;;;;3.80;2.50;;;23.10;99.90;;;;;;4990280;28;20628;-64
2023/09/21 03:02:51;;;;;;;2.80;2.60;;;23.10;99.90;;;;;;4989468;28;20487;-66
2023/09/21 03:05:21;;;;;;;3.90;2.97;;;23.10;99.90;;;;;;4988134;28;20464;-64
2023/09/21 03:07:48;;;;;;;2.67;2.47;;;23.10;99.90;;;;;;4985840;28;20482;-61
2023/09/21 03:10:16;;;;;;;2.87;2.63;;;23.10;99.90;;;;;;4987611;28;20847;-55
2023/09/21 03:12:47;;;;;;;2.43;2.23;;;23.10;99.90;;;;;;4990224;28;20463;-66
2023/09/21 03:15:15;;;;;;;2.60;1.90;;;23.10;99.90;;;;;;4984305;28;20467;-70
2023/09/21 03:17:43;;;;;;;2.73;2.50;;;23.10;99.90;;;;;;4983191;28;21241;-65
2023/09/21 03:20:11;;;;;;;2.57;2.37;;;23.10;99.90;;;;;;4989839;28;20456;-65
2023/09/21 03:22:41;;;;;;;2.83;2.50;;;23.10;99.90;;;;;;4987717;28;20522;-64
2023/09/21 03:25:11;;;;;;;2.90;2.67;;;23.10;99.90;;;;;;4983361;28;20906;-56
2023/09/21 03:27:40;;;;;;;2.87;2.57;;;23.10;99.90;;;;;;4987263;28;20483;-55
2023/09/21 03:30:11;;;;;;;2.80;2.40;;;23.10;99.90;;;;;;4987546;28;20467;-57
2023/09/21 03:32:40;;;;;;;3.33;2.70;;;23.10;99.90;;;;;;4983493;28;20499;-63
2023/09/21 03:35:10;;;;;;;4.23;3.00;;;23.10;99.90;;;;;;4989438;28;20455;-55
2023/09/21 03:37:41;;;;;;;4.07;2.30;;;23.00;99.90;;;;;;4988215;28;20489;-53
2023/09/21 03:40:09;;;;;;;2.53;2.00;;;23.10;99.90;;;;;;4990679;28;21031;-67
2023/09/21 03:42:36;;;;;;;2.97;2.20;;;23.00;99.90;;;;;;4989251;28;20963;-59
2023/09/21 03:45:03;;;;;;;3.70;3.40;;;23.00;99.90;;;;;;4989154;28;20466;-54
2023/09/21 03:47:30;;;;;;;3.00;2.40;;;23.10;99.90;;;;;;4989717;28;20479;-59
2023/09/21 03:49:59;;;;;;;3.27;2.97;;;23.10;99.90;;;;;;4989632;28;20867;-57
2023/09/21 03:52:25;;;;;;;2.73;2.53;;;23.00;99.90;;;;;;4986742;28;20470;-60
2023/09/21 03:54:53;;;;;;;2.40;2.20;;;23.10;99.90;;;;;;4988585;28;20460;-62
2023/09/21 03:57:20;;;;;;;2.63;2.43;;;23.00;99.90;;;;;;4992097;28;20482;-67
2023/09/21 03:59:47;;;;;;;3.90;2.60;;;23.00;99.90;;;;;;4989674;28;20926;-51
2023/09/21 04:02:14;;;;;;;2.17;2.00;;;23.00;99.90;;;;;;4985558;28;20875;-54
2023/09/21 04:04:41;;;;;;;3.00;2.70;;;23.00;99.90;;;;;;4986836;28;20463;-59
2023/09/21 04:07:08;;;;;;;2.67;2.47;;;23.00;99.90;;;;;;4987321;28;20811;-58
2023/09/21 04:09:34;;;;;;;3.10;2.83;;;23.10;99.90;;;;;;4988926;28;20514;-72
2023/09/21 04:12:03;;;;;;;2.23;2.03;;;23.00;99.90;;;;;;4990676;28;20476;-59
2023/09/21 04:14:30;;;;;;;2.70;2.50;;;23.00;99.90;;;;;;4986863;28;21729;-62
2023/09/21 04:16:58;;;;;;;2.60;2.40;;;23.00;99.90;;;;;;4986254;28;20459;-55
2023/09/21 04:19:25;;;;;;;3.40;2.80;;;23.00;99.90;;;;;;4985081;28;20459;-51
2023/09/21 04:21:51;;;;;;;2.23;2.03;;;23.00;99.90;;;;;;4988929;28;20462;-59
2023/09/21 04:24:18;;;;;;;3.30;2.50;;;23.00;99.90;;;;;;4987934;28;20490;-64
2023/09/21 04:26:45;;;;;;;2.60;2.40;;;23.00;99.90;;;;;;4991334;28;20471;-69
2023/09/21 04:29:15;;;;;;;3.50;2.93;;;23.00;99.90;;;;;;4983702;28;20474;-48
2023/09/21 04:31:42;;;;;;;1.83;1.67;;;23.00;99.90;;;;;;4984400;28;20618;-67
2023/09/21 04:34:10;;;;;;;2.73;2.47;;;23.00;99.90;;;;;;4988303;28;20463;-65
2023/09/21 04:36:36;;;;;;;2.60;2.40;;;23.00;99.90;;;;;;4985276;28;20455;-67
2023/09/21 04:39:04;;;;;;;3.03;2.53;;;23.00;99.90;;;;;;4996017;28;22413;-52
2023/09/21 04:41:33;;;;;;;3.07;2.77;;;23.00;99.90;;;;;;4992808;28;20973;-56
2023/09/21 04:44:00;;;;;;;2.23;2.03;;;23.00;99.90;;;;;;4993137;28;20462;-64
2023/09/21 04:46:28;;;;;;;3.40;2.13;;;23.00;99.90;;;;;;4988935;28;20589;-61
2023/09/21 04:48:54;;;;;;;2.27;2.07;;;23.00;99.90;;;;;;4991022;28;20562;-62
2023/09/21 04:51:21;;;;;;;2.73;2.53;;;23.00;99.90;;;;;;4988516;28;20800;-57
2023/09/21 04:53:48;;;;;;;4.43;2.27;;;23.00;99.90;;;;;;4992551;28;20486;-48
2023/09/21 04:56:15;;;;;;;2.83;2.53;;;23.00;99.90;;;;;;4990856;28;20911;-52
2023/09/21 04:58:42;;;;;;;2.57;2.30;;;22.90;99.90;;;;;;4988555;28;21113;-59
2023/09/21 05:01:10;;;;;;;2.73;2.53;;;23.00;99.90;;;;;;4988621;28;21113;-60
2023/09/21 05:03:38;;;;;;;2.40;2.10;;;23.00;99.90;;;;;;4988087;28;20471;-53
2023/09/21 05:06:05;;;;;;;2.60;2.40;;;23.00;99.90;;;;;;4987398;28;20460;-57
2023/09/21 05:08:36;;;;;;;2.43;2.20;;;23.00;99.90;;;;;;4991046;28;20494;-65
2023/09/21 05:11:03;;;;;;;2.37;2.17;;;22.90;99.90;;;;;;4990634;28;20467;-59
2023/09/21 05:13:29;;;;;;;2.73;2.53;;;23.00;99.90;;;;;;4986941;28;20451;-58
2023/09/21 05:15:56;;;;;;;2.43;2.23;;;23.00;99.90;;;;;;4981633;28;20455;-66
2023/09/21 05:18:23;;;;;;;2.43;2.23;;;23.00;99.90;;;;;;4987626;28;20762;-62
2023/09/21 05:20:51;;;;;;;2.60;2.40;;;22.90;99.90;;;;;;4991142;28;20458;-63
2023/09/21 05:23:18;;;;;;;2.40;2.20;;;23.00;99.90;;;;;;4987738;28;20463;-58
2023/09/21 05:25:45;;;;;;;2.67;2.47;;;23.00;99.90;;;;;;4990758;28;20521;-65
2023/09/21 05:28:12;;;;;;;2.13;1.93;;;23.00;99.90;;;;;;4989642;28;20536;-67
2023/09/21 05:30:39;;;;;;;3.30;3.10;;;23.00;99.90;;;;;;4979137;28;20466;-56
2023/09/21 05:33:07;;;;;;;2.50;2.30;;;23.00;99.90;;;;;;4987496;28;20558;-57
2023/09/21 05:35:34;;;;;;;2.57;2.37;;;23.00;99.90;;;;;;4985787;28;20467;-59
2023/09/21 05:38:05;;;;;;;2.57;2.37;;;22.90;99.90;;;;;;4990688;28;20481;-61
2023/09/21 05:40:33;;;;;;;5.97;2.40;;;22.90;99.90;;;;;;4985688;28;20470;-52
2023/09/21 05:43:00;;;;;;;2.20;1.90;;;23.00;99.90;;;;;;4990700;28;20459;-59
2023/09/21 05:45:27;;;;;;;2.50;2.20;;;23.00;99.90;;;;;;4983895;28;20549;-73
2023/09/21 05:47:53;;;;;;;2.17;1.97;;;23.00;99.90;;;;;;4990790;28;20462;-64
2023/09/21 05:50:20;;;;;;;2.00;1.80;;;22.90;99.90;;;;;;4991790;28;20470;-58
2023/09/21 05:52:47;;;;;;;3.13;2.13;;;22.90;99.90;;;;;;4988121;28;20475;-62
2023/09/21 05:55:16;;;;;;;3.00;2.03;;;22.90;99.90;;;;;;4987473;28;20456;-59
2023/09/21 05:57:46;;;;;;;4.07;2.83;;;22.90;99.90;;;;;;4988016;28;20471;-55
2023/09/21 06:00:14;;;;;;;3.23;1.90;;;22.80;99.90;;;;;;4986421;28;20471;-67
2023/09/21 06:02:41;;;;;;;2.93;2.13;;;22.80;99.90;;;;;;4990575;28;20475;-64
2023/09/21 06:05:10;;;;;;;1.93;1.43;;;22.80;99.90;;;;;;4991274;28;20521;-59
2023/09/21 06:07:36;;;;;;;2.27;1.57;;;22.80;99.90;;;;;;4988024;28;20784;-58
2023/09/21 06:10:05;;;;;;;2.13;1.77;;;22.80;99.90;;;;;;4989362;28;20482;-59
2023/09/21 06:12:33;;;;;;;2.83;2.03;;;22.70;99.90;;;;;;4984515;28;20574;-61
2023/09/21 06:15:00;;;;;;;5.23;2.20;;;22.80;99.90;;;;;;4982451;28;20641;-65
2023/09/21 06:17:28;;;;;;;7.57;2.20;;;22.70;99.80;;;;;;4982734;28;20995;-61
2023/09/21 06:19:55;;;;;;;5.57;2.40;;;22.70;99.90;;;;;;4992662;28;20486;-54
2023/09/21 06:22:22;;;;;;;4.60;2.13;;;22.70;99.90;;;;;;4980440;28;20462;-62
2023/09/21 06:24:48;;;;;;;2.80;2.27;;;22.70;99.90;;;;;;4982335;28;20470;-60
2023/09/21 06:27:15;;;;;;;4.77;2.43;;;22.70;99.90;;;;;;4982773;28;20518;-65
2023/09/21 06:29:44;;;;;;;2.13;1.80;;;22.80;99.90;;;;;;4983435;28;20486;-64
2023/09/21 06:32:11;;;;;;;5.50;1.77;;;22.80;99.90;;;;;;4977742;28;20490;-63
2023/09/21 06:34:41;;;;;;;4.73;3.10;;;22.80;99.90;;;;;;4979267;28;20459;-51
2023/09/21 06:37:08;;;;;;;6.50;2.50;;;22.70;99.90;;;;;;4980920;28;20459;-61
2023/09/21 06:39:35;;;;;;;2.37;1.80;;;22.80;99.90;;;;;;4983733;28;20483;-53
2023/09/21 06:42:02;;;;;;;3.80;2.53;;;22.80;99.90;;;;;;4976831;28;20847;-61
2023/09/21 06:44:29;;;;;;;2.23;1.87;;;22.80;99.90;;;;;;4978649;28;20459;-63
2023/09/21 06:46:57;;;;;;;5.63;2.20;;;22.80;99.90;;;;;;4978216;28;20455;-60
2023/09/21 06:49:26;;;;;;;6.23;2.30;;;22.80;99.90;;;;;;4982405;28;20478;-53
2023/09/21 06:51:55;;;;;;;3.60;2.80;;;22.80;99.90;;;;;;4980247;28;20844;-55
2023/09/21 06:54:23;;;;;;;7.97;2.30;;;22.80;99.90;;;;;;4985901;28;20466;-54
2023/09/21 06:56:51;;;;;;;3.57;2.17;;;22.80;99.90;;;;;;4983184;28;20943;-58
2023/09/21 06:59:17;;;;;;;4.87;2.20;;;22.80;99.90;;;;;;4985771;28;20573;-56
2023/09/21 07:01:44;;;;;;;5.63;2.07;;;22.80;99.90;;;;;;4983256;28;22173;-65
2023/09/21 07:04:12;;;;;;;4.20;2.50;;;22.80;99.90;;;;;;4977862;28;20497;-57
2023/09/21 07:06:40;;;;;;;2.60;2.27;;;22.80;99.90;;;;;;4983441;28;20452;-50
2023/09/21 07:09:09;;;;;;;3.20;2.50;;;22.80;99.90;;;;;;4984699;28;20566;-50
2023/09/21 07:11:35;;;;;;;3.30;2.10;;;22.80;99.90;;;;;;4980692;28;20506;-57
2023/09/21 07:14:03;;;;;;;1.80;1.60;;;22.80;99.90;;;;;;4985096;28;20830;-58
2023/09/21 07:16:30;;;;;;;2.50;2.07;;;22.80;99.90;;;;;;4976750;28;21145;-56
2023/09/21 07:18:57;;;;;;;3.03;1.83;;;22.80;99.90;;;;;;4982701;28;20471;-54
2023/09/21 07:21:26;;;;;;;4.30;2.20;;;22.80;99.90;;;;;;4983709;28;20486;-62
2023/09/21 07:23:52;;;;;;;3.27;2.20;;;22.80;99.90;;;;;;4975474;28;20459;-56
2023/09/21 07:26:21;;;;;;;4.10;2.13;;;22.80;99.90;;;;;;4977007;28;20474;-55
2023/09/21 07:28:48;;;;;;;3.23;1.90;;;22.80;99.90;;;;;;4979468;28;20620;-58
2023/09/21 07:31:15;;;;;;;3.10;2.43;;;22.80;99.90;;;;;;4982097;28;20475;-52
2023/09/21 07:33:42;;;;;;;3.83;2.00;;;22.80;99.90;;;;;;4983404;28;20462;-55
2023/09/21 07:36:08;;;;;;;2.27;2.07;;;22.80;99.90;;;;;;4985375;28;21375;-56
2023/09/21 07:38:36;;;;;;;1.80;1.53;;;22.80;99.90;;;;;;4986486;28;20459;-48
2023/09/21 07:41:06;;;;;;;3.23;2.50;;;22.80;99.90;;;;;;4985001;28;20459;-55
2023/09/21 07:43:33;;;;;;;2.50;2.30;;;22.80;99.90;;;;;;4980446;28;20553;-59
2023/09/21 07:46:00;;;;;;;1.80;1.53;;;22.90;99.90;;;;;;4982592;28;20459;-51
2023/09/21 07:48:27;;;;;;;2.90;2.20;;;22.80;99.90;;;;;;4984646;28;20913;-56
2023/09/21 07:50:56;;;;;;;3.23;2.40;;;22.90;99.90;;;;;;4979155;28;20467;-55
2023/09/21 07:53:23;;;;;;;2.40;1.87;;;22.80;99.90;;;;;;4981793;28;20463;-56
2023/09/21 07:56:00;;;;;;;2.77;2.17;;;22.80;99.90;;;;;;4981309;28;20477;-56
2023/09/21 07:58:27;;;;;;;3.30;2.00;;;22.90;99.90;;;;;;4981591;28;20529;-54
2023/09/21 08:00:55;;;;;;;2.67;2.27;;;22.80;99.90;;;;;;4979869;28;20474;-50
2023/09/21 08:03:25;;;;;;;3.43;2.67;;;22.80;99.90;;;;;;4976859;28;20601;-56
2023/09/21 08:05:52;;;;;;;2.43;1.93;;;22.90;99.90;;;;;;4974118;28;21444;-57
2023/09/21 08:08:19;;;;;;;2.20;1.97;;;22.80;99.90;;;;;;4981550;28;20471;-56
2023/09/21 08:10:45;;;;;;;2.00;1.80;;;22.90;99.90;;;;;;4975895;28;20490;-59
2023/09/21 08:13:14;;;;;;;3.30;2.30;;;22.90;99.90;;;;;;4978936;28;21328;-63
2023/09/21 08:15:40;;;;;;;2.37;1.83;;;22.90;99.90;;;;;;4971378;28;20947;-59
2023/09/21 08:18:10;;;;;;;4.93;2.40;;;22.90;99.90;;;;;;4980989;28;20467;-60
2023/09/21 08:20:39;;;;;;;4.70;2.03;;;22.90;99.90;;;;;;4964871;28;20821;-60
2023/09/21 08:23:06;;;;;;;4.13;2.03;;;22.90;99.90;;;;;;4966301;28;20920;-63
2023/09/21 08:25:35;;;;;;;3.77;2.27;;;22.90;99.90;;;;;;4970469;28;20459;-59
2023/09/21 08:28:03;;;;;;;2.17;1.97;;;22.90;99.90;;;;;;4980760;28;20574;-60
2023/09/21 08:30:31;;;;;;;3.30;2.40;;;22.90;99.90;;;;;;4979839;28;20471;-64
2023/09/21 09:00:04;;;;;;;5.13;2.60;;;23.10;99.90;;;;;;4971814;28;20478;-57
2023/09/21 09:02:32;;;;;;;7.37;3.60;;;23.10;99.90;;;;;;4969415;28;20468;-65
2023/09/21 09:04:59;;;;;;;3.83;3.13;;;23.10;99.90;;;;;;4960351;28;20468;-56
2023/09/21 09:07:26;;;;;;;5.20;2.67;;;23.20;99.90;;;;;;4964170;28;20475;-59
2023/09/21 09:09:53;;;;;;;8.10;3.03;;;23.20;99.90;;;;;;4966103;28;20842;-58
2023/09/21 09:12:23;;;;;;;4.37;2.27;;;23.20;99.90;;;;;;4969794;28;21278;-50
2023/09/21 09:14:50;;;;;;;2.90;1.90;;;23.20;99.90;;;;;;4969575;28;20469;-56
2023/09/21 09:17:19;;;;;;;3.90;2.30;;;23.20;99.90;;;;;;4969565;28;21002;-56
2023/09/21 09:19:47;;;;;;;4.37;3.03;;;23.30;99.90;;;;;;4966161;28;20479;-52
2023/09/21 09:22:15;;;;;;;3.80;2.70;;;23.20;99.90;;;;;;4967685;28;20497;-55
2023/09/21 09:24:42;;;;;;;7.53;2.90;;;23.30;99.90;;;;;;4971197;28;22097;-57
2023/09/21 09:27:09;;;;;;;4.50;2.73;;;23.30;99.90;;;;;;4972445;28;20494;-62
2023/09/21 09:29:48;;;;;;;3.83;2.30;;;23.30;99.90;;;;;;4975096;28;20542;-54
2023/09/21 09:32:18;;;;;;;8.33;1.93;;;23.30;99.90;;;;;;4970976;28;20460;-52
2023/09/21 09:34:46;;;;;;;5.13;2.17;;;23.40;99.90;;;;;;4971653;28;20456;-58
2023/09/21 09:37:15;;;;;;;3.77;2.50;;;23.40;99.90;;;;;;4969433;28;20469;-58
2023/09/21 09:39:42;;;;;;;6.10;3.20;;;23.40;99.90;;;;;;4972201;28;20768;-60
2023/09/21 09:42:11;;;;;;;2.97;1.93;;;23.40;99.90;;;;;;4966325;28;21168;-59
2023/09/21 09:44:42;;;;;;;5.10;3.33;;;23.40;99.90;;;;;;4972260;28;20470;-66
2023/09/21 09:47:11;;;;;;;4.20;2.37;;;23.50;99.90;;;;;;4972550;28;20469;-60
2023/09/21 09:49:43;;;;;;;6.53;2.70;;;23.50;99.90;;;;;;4976447;28;20471;-60
2023/09/21 09:52:12;;;;;;;4.63;2.57;;;23.50;99.90;;;;;;4975368;28;20979;-57
2023/09/21 09:54:41;;;;;;;4.60;2.80;;;23.50;99.90;;;;;;4980737;28;20534;-62
2023/09/21 09:57:13;;;;;;;3.63;2.10;;;23.50;99.90;;;;;;4970106;28;20500;-63
2023/09/21 09:59:42;;;;;;;3.53;2.20;;;23.50;99.90;;;;;;4966201;28;20476;-58
2023/09/21 10:02:12;;;;;;;6.57;3.00;;;23.60;99.90;;;;;;4972141;28;20531;-60
2023/09/21 10:04:41;;;;;;;4.20;2.20;;;23.50;99.90;;;;;;4973017;28;20613;-59
2023/09/21 10:07:08;;;;;;;4.00;2.47;;;23.60;99.90;;;;;;4970404;28;20977;-60
2023/09/21 10:09:37;;;;;;;7.27;2.90;;;23.60;99.90;;;;;;4972976;28;20489;-63
2023/09/21 10:12:04;;;;;;;4.43;2.43;;;23.60;99.90;;;;;;4979073;28;20560;-65
2023/09/21 10:14:36;;;;;;;3.47;2.33;;;23.60;99.90;;;;;;4978263;28;20893;-62
2023/09/21 10:17:10;;;;;;;3.07;2.23;;;23.60;99.90;;;;;;4974871;28;21301;-58
2023/09/21 10:19:38;;;;;;;4.73;2.23;;;23.60;99.90;;;;;;4972692;28;20476;-61
2023/09/21 10:22:26;;;;;;;5.30;2.50;;;23.70;99.90;;;;;;4970554;28;20461;-55
2023/09/21 10:24:58;;;;;;;3.80;2.40;;;23.70;99.90;;;;;;4974454;28;21351;-62
2023/09/21 10:27:27;;;;;;;3.43;2.33;;;23.70;99.90;;;;;;4968518;28;20568;-54
2023/09/21 10:30:00;;;;;;;6.00;2.90;;;23.70;99.90;;;;;;4971550;28;20481;-64
2023/09/21 10:32:42;;;;;;;3.27;2.17;;;23.70;99.90;;;;;;4969905;28;20469;-58
2023/09/21 10:35:09;;;;;;;6.70;2.10;;;23.70;99.90;;;;;;4967756;28;21851;-58
2023/09/21 10:37:39;;;;;;;5.43;2.00;;;23.70;99.90;;;;;;4966028;28;20494;-54
2023/09/21 10:40:08;;;;;;;5.00;2.80;;;23.80;99.90;;;;;;4968286;28;20468;-56
2023/09/21 10:42:37;;;;;;;5.70;2.47;;;23.80;99.90;;;;;;4971995;28;21078;-61
2023/09/21 10:45:07;;;;;;;10.70;1.87;;;23.80;99.90;;;;;;4973743;28;20978;-53
2023/09/21 10:47:48;;;;;;;2.73;1.90;;;23.80;99.90;;;;;;4969832;28;20461;-65
2023/09/21 10:50:17;;;;;;;6.43;2.00;;;23.80;99.90;;;;;;4971280;28;21046;-61
2023/09/21 10:52:47;;;;;;;2.33;1.80;;;23.80;99.90;;;;;;4974292;28;20563;-61
2023/09/21 10:55:16;;;;;;;4.20;2.27;;;23.80;99.90;;;;;;4975786;28;20466;-57
2023/09/21 10:57:44;;;;;;;3.90;2.23;;;23.80;99.90;;;;;;4981455;28;20946;-51
2023/09/21 11:00:16;;;;;;;3.07;1.50;;;23.90;99.90;;;;;;4979154;28;20465;-50
2023/09/21 11:02:46;;;;;;;15.03;2.10;;;23.90;99.90;;;;;;4979447;28;20470;-61
2023/09/21 11:05:16;;;;;;;2.30;1.87;;;23.90;99.90;;;;;;4980913;28;20587;-50
2023/09/21 11:07:44;;;;;;;4.60;1.77;;;23.90;99.90;;;;;;4983873;28;21085;-52
2023/09/21 11:10:12;;;;;;;2.20;1.60;;;23.90;99.90;;;;;;4986015;28;20486;-53
2023/09/21 11:12:40;;;;;;;3.77;1.80;;;23.90;99.90;;;;;;4980684;28;20545;-59
2023/09/21 11:15:10;;;;;;;1.97;1.77;;;23.90;99.90;;;;;;4982005;28;20461;-60
2023/09/21 11:17:37;;;;;;;2.17;1.57;;;23.90;99.90;;;;;;4983534;28;20820;-57
2023/09/21 11:20:04;;;;;;;2.67;2.23;;;23.90;99.90;;;;;;4988360;28;20469;-59
2023/09/21 11:22:33;;;;;;;2.07;1.43;;;23.90;99.90;;;;;;4981143;28;20454;-74
2023/09/21 11:25:01;;;;;;;10.50;2.93;;;23.90;99.90;;;;;;4982777;28;20462;-62
2023/09/21 11:27:28;;;;;;;1.83;1.67;;;23.90;99.90;;;;;;4982940;28;20729;-79
2023/09/21 11:29:56;;;;;;;2.53;2.10;;;23.90;99.90;;;;;;4983008;28;20482;-57
2023/09/21 11:32:23;;;;;;;5.73;2.27;;;24.00;99.90;;;;;;4983055;28;20471;-57
2023/09/21 11:34:58;;;;;;;6.10;2.17;;;23.90;99.90;;;;;;4983066;28;20462;-58
2023/09/21 11:37:26;;;;;;;7.87;2.33;;;24.00;99.90;;;;;;4981856;28;21262;-65
2023/09/21 11:39:55;;;;;;;3.43;1.87;;;24.00;99.90;;;;;;4983845;28;20556;-63
2023/09/21 11:42:25;;;;;;;11.00;2.20;;;24.00;99.90;;;;;;4985695;28;20469;-55
2023/09/21 11:44:51;;;;;;;4.60;2.03;;;24.10;99.90;;;;;;4980713;28;20737;-57
2023/09/21 11:47:22;;;;;;;2.53;2.33;;;24.10;99.90;;;;;;4976551;28;20462;-59
2023/09/21 11:49:53;;;;;;;3.03;2.13;;;24.10;99.90;;;;;;4984305;28;20473;-63
2023/09/21 11:52:23;;;;;;;5.83;2.13;;;24.10;99.90;;;;;;4982472;28;20476;-69
2023/09/21 11:54:52;;;;;;;4.73;2.47;;;24.10;99.90;;;;;;4980719;28;20564;-61
2023/09/21 11:57:20;;;;;;;4.83;1.93;;;24.10;99.90;;;;;;4982722;28;21382;-54
2023/09/21 11:59:49;;;;;;;7.60;2.70;;;24.10;99.90;;;;;;4980403;28;20466;-58
2023/09/21 12:02:17;;;;;;;3.10;1.80;;;24.10;99.90;;;;;;4985242;28;20474;-54
2023/09/21 12:04:44;;;;;;;5.40;2.47;;;24.10;99.90;;;;;;4981654;28;20465;-64
2023/09/21 12:07:12;;;;;;;3.33;2.13;;;24.10;99.90;;;;;;4981063;28;20517;-59
2023/09/21 12:09:40;;;;;;;5.27;2.50;;;24.20;99.90;;;;;;4982387;28;20495;-58
2023/09/21 12:12:09;;;;;;;2.90;2.20;;;24.10;99.90;;;;;;4981913;28;20482;-58
2023/09/21 12:14:36;;;;;;;2.43;2.00;;;24.10;99.90;;;;;;4982758;28;20797;-68
2023/09/21 12:17:09;;;;;;;6.40;2.30;;;24.10;99.90;;;;;;4983697;28;20469;-61
2023/09/21 12:19:38;;;;;;;2.20;1.97;;;24.20;99.90;;;;;;4986143;28;21055;-63
2023/09/21 12:22:06;;;;;;;3.03;2.20;;;24.20;99.90;;;;;;4984494;28;20564;-67
2023/09/21 12:24:34;;;;;;;2.83;2.43;;;24.10;99.90;;;;;;4981525;28;20501;-54
2023/09/21 12:27:01;;;;;;;2.90;2.10;;;24.10;99.90;;;;;;4985397;28;20466;-56
2023/09/21 12:29:27;;;;;;;5.30;2.20;;;24.10;99.90;;;;;;4982019;28;20679;-56
2023/09/21 12:31:54;;;;;;;2.87;1.83;;;24.20;99.90;;;;;;4981693;28;20513;-55
2023/09/21 12:34:23;;;;;;;2.77;2.37;;;24.10;99.90;;;;;;4987308;28;20508;-55
2023/09/21 12:36:50;;;;;;;4.37;3.00;;;24.20;99.90;;;;;;4981792;28;20462;-58
2023/09/21 12:39:18;;;;;;;3.70;2.90;;;24.20;99.90;;;;;;4986610;28;20488;-58
2023/09/21 12:41:45;;;;;;;3.17;2.30;;;24.20;99.90;;;;;;4978307;28;20454;-58
2023/09/21 12:44:12;;;;;;;5.30;2.47;;;24.20;99.90;;;;;;4984188;28;21087;-48
2023/09/21 12:46:39;;;;;;;3.43;2.40;;;24.20;99.90;;;;;;4979283;28;20472;-62
2023/09/21 12:49:06;;;;;;;3.37;2.50;;;24.20;99.90;;;;;;4979129;28;20470;-53
2023/09/21 12:51:34;;;;;;;2.30;2.10;;;24.20;99.90;;;;;;4985992;28;20481;-57
2023/09/21 12:54:02;;;;;;;2.53;2.30;;;24.20;99.90;;;;;;4983744;28;20466;-57
2023/09/21 12:56:28;;;;;;;3.03;2.70;;;24.20;99.90;;;;;;4977276;28;21017;-58
2023/09/21 12:58:58;;;;;;;2.90;1.90;;;24.20;99.90;;;;;;4983550;28;21106;-57
2023/09/21 13:01:25;;;;;;;4.10;2.60;;;24.20;99.90;;;;;;4984432;28;20520;-60
2023/09/21 13:03:52;;;;;;;3.70;2.67;;;24.20;99.90;;;;;;4988028;28;20458;-55
2023/09/21 13:06:19;;;;;;;2.93;2.20;;;24.20;99.90;;;;;;4986235;28;20458;-58
2023/09/21 13:08:47;;;;;;;2.50;2.13;;;24.20;99.90;;;;;;4982052;28;20473;-55
2023/09/21 13:11:15;;;;;;;3.87;2.40;;;24.20;99.90;;;;;;4981529;28;20908;-59
2023/09/21 13:13:41;;;;;;;7.27;2.40;;;24.20;99.90;;;;;;4986940;28;20461;-53
2023/09/21 13:16:08;;;;;;;3.00;2.70;;;24.20;99.90;;;;;;4980155;28;21025;-53
2023/09/21 13:18:38;;;;;;;2.47;2.27;;;24.10;99.90;;;;;;4988796;28;21074;-52
2023/09/21 13:21:04;;;;;;;3.53;2.50;;;24.10;99.90;;;;;;4989788;28;20564;-56